x

8452944 - Conimicut Light, Ri (cptr1) Weather Station

10:54 - Fri 30th Jan 2015 All times are EST. -5 hours from GMT.

  • Wind
    3mph
  • Sea Temp 34°f
  • Luft Temp 32°f
  • Sea Pressure 1008.2mb
  • 8452944 - Conimicut Light, Ri
  • 8452944 - Conimicut Light, Ri

More Historic Weather Station data

Upgrade to MSW Pro to gain access to the past 30 days of data for over 8000 Wavebouys and Weather Stations around the globe.

Join Pro

Comparision Forecast

View Surf forecast
   
Fr 01/30 10:54 3
mph
1008.2mb 34f 32f
10:48 3 5 mph 1008.4mb 34f 32f
10:42 5 6 mph 1008.5mb 34f 32f
10:36 6
mph
1008.7mb 34f 32f
10:30 6
mph
1008.8mb 34f 32f
10:24 5
mph
1008.9mb 34f 32f
10:18 6
mph
1009mb 34f 32f
10:12 6
mph
1009mb 34f 32f
10:06 6
mph
1009.1mb 34f 32f
10:00 6
mph
1009.1mb 34f 32f
9:54 3 5 mph 1009.1mb 34f 32f
9:48 3
mph
1009.1mb 34f 32f
9:42 2
mph
1009.2mb 34f 32f
9:36  -  1 mph 1009.2mb 34f 32f
9:30 1 2 mph 1009.2mb 34f 32f
9:24 1 3 mph 1009.3mb 34f 32f
9:18 2
mph
1009.5mb 34f 32f
9:12 2 3 mph 1009.6mb 34f 32f
9:06 2 3 mph 1009.6mb 34f 32f
9:00 2 3 mph 1009.6mb 34f 32f
8:54 2
mph
1009.6mb 34f 33f
8:48 1 2 mph 1009.7mb 34f 33f
8:42  -  1 mph 1009.6mb 34f 33f
8:36  -  1 mph 1009.7mb 34f 33f
8:30  -  1 mph 1009.6mb 34f 33f
8:24  -  2 mph 1009.7mb 34f 33f
8:18 1 3 mph 1009.8mb 34f 33f
8:12 2 3 mph 1009.9mb 34f 33f
8:06 3 6 mph 1009.9mb 34f 33f
8:00 3 6 mph 1010mb 34f 33f
7:54 5 6 mph 1010mb 34f 33f
7:48 1 2 mph 1010mb 34f 33f
7:42  -  2 mph 1010.1mb 34f 33f
7:36 2 3 mph 1010.1mb 34f 33f
7:30 2 3 mph 1010.2mb 34f 33f
7:24 3 5 mph 1010.2mb 34f 33f
7:18 5
mph
1010.2mb 34f 33f
7:12 5 6 mph 1010.3mb 34f 33f
7:06 5 6 mph 1010.3mb 34f 33f
7:00 3 5 mph 1010.4mb 34f 33f
6:54 3 5 mph 1010.5mb 34f 33f
6:48 3 5 mph 1010.6mb 34f 33f
6:42 3 5 mph 1010.7mb 34f 34f
6:36 2 6 mph 1010.9mb 34f 34f
6:30 6 7 mph 1010.9mb 34f 34f
6:24 7 8 mph 1010.9mb 34f 35f
6:18 8 9 mph 1010.9mb 34f 34f
6:12 7 9 mph 1010.9mb 34f 34f
6:06 8 10 mph 1010.9mb 34f 34f
6:00 8 10 mph 1010.9mb 34f 34f
5:54 7 8 mph 1010.9mb 34f 34f
5:48 7 10 mph 1011.1mb 34f 34f
5:42 8 9 mph 1011.1mb 34f 34f
5:36 9 10 mph 1011.2mb 34f 34f
5:30 10 11 mph 1011.3mb 34f 34f
5:24 9 11 mph 1011.4mb 34f 34f
5:18 10
mph
1011.5mb 34f 34f
5:12 8 10 mph 1011.6mb 34f 33f
5:06 9 11 mph 1011.5mb 34f 33f
5:00 8 10 mph 1011.5mb 34f 33f
4:54 9 10 mph 1011.6mb 34f 33f
4:48 8 10 mph 1011.7mb 34f 33f
4:42 8
mph
1011.9mb 34f 33f
4:36 7 8 mph 1012.1mb 34f 33f
4:30 7 11 mph 1012.1mb 34f 33f
4:24 9 10 mph 1012mb 34f 33f
4:18 3 7 mph 1012.2mb 34f 33f
4:12 5 6 mph 1012.3mb 34f 32f
4:06 3 6 mph 1012.3mb 34f 32f
4:00 5 7 mph 1012.3mb 34f 32f
3:54 6 8 mph 1012.3mb 34f 32f
3:48 6 8 mph 1012.4mb 34f 32f
3:42 7 8 mph 1012.6mb 34f 32f
3:36 6 8 mph 1012.7mb 34f 32f
3:30 7 9 mph 1012.9mb 34f 32f
3:24 8 10 mph 1013.1mb 34f 32f
3:18 9 11 mph 1013.2mb 34f 32f
3:12 10 13 mph 1013.2mb 34f 32f
3:06 9 11 mph 1013.5mb 34f 32f
3:00 9 11 mph 1013.6mb 34f 32f
2:54 9 11 mph 1013.8mb 34f 32f
2:48 10 11 mph 1014mb 34f 33f
2:42 10 13 mph 1014.1mb 34f 33f
2:36 9 11 mph 1014mb 34f 33f
2:30 9 10 mph 1014.2mb 34f 33f
2:24 9 10 mph 1014.3mb 34f 33f
2:18 10 13 mph 1014.4mb 34f 33f
2:12 11
mph
1014.5mb 34f 33f
2:06 10 11 mph 1014.6mb 34f 33f
2:00 10 11 mph 1014.8mb 34f 33f
1:54 11 13 mph 1014.9mb 34f 33f
1:48 11 13 mph 1015.1mb 34f -
1:42 10 13 mph 1015.3mb 34f -
1:36 10 13 mph 1015.3mb 34f -
1:30 10 11 mph 1015.4mb 34f 33f
1:24 10 11 mph 1015.5mb 34f 33f
1:18 9 10 mph 1015.5mb 34f 33f
1:12 9
mph
1015.6mb 34f 33f
1:06 9 10 mph 1015.7mb 34f 33f
1:00 8 9 mph 1015.7mb 34f 33f
12:54 8 9 mph 1015.8mb 34f 33f
12:48 8 9 mph 1016mb 34f 33f
12:42 8 9 mph 1016.2mb 34f 33f
12:36 8
mph
1016.3mb 34f 32f
12:30 8 9 mph 1016.3mb 34f 32f
12:24 9 10 mph 1016.4mb 34f 33f
12:18 8 9 mph 1016.6mb 34f 33f
12:12 8 9 mph 1016.8mb 34f 33f
12:06 8
mph
1016.9mb 35f 33f
12:00 7
mph
1017.1mb 35f 33f
Do 01/29 11:54 6 8 mph 1017.2mb 35f 32f
11:48 7 8 mph 1017.3mb 35f 32f
11:42 7 8 mph 1017.4mb 35f 33f
11:36 8 9 mph 1017.4mb 35f 33f
11:30 8 10 mph 1017.5mb 35f 33f
11:24 9 10 mph 1017.5mb 35f 33f
11:18 9 10 mph 1017.6mb 35f 33f
11:12 10
mph
1017.7mb 34f 33f
11:06 6 8 mph 1017.9mb 34f 32f
11:00 6
mph
1018.1mb 34f 31f
10:54 6
mph
1018.2mb 34f 31f
10:48 5 6 mph 1018.3mb 34f 30f
10:42 6 7 mph 1018.5mb 34f 30f
10:36 7 8 mph 1018.4mb 34f 30f
10:30 8 9 mph 1018.3mb 34f 30f
10:24 9
mph
1018.4mb 34f 30f
10:18 8 9 mph 1018.5mb 34f 30f
10:12 6 7 mph 1018.7mb 34f 30f
10:06 3 5 mph 1019mb 34f 30f
10:00 2 3 mph 1019mb 34f 30f
9:54 2 3 mph 1019.1mb 34f 30f
9:48  -  1 mph 1019.3mb 34f 30f
9:42 1 3 mph 1019.4mb 34f 30f
9:36 3 5 mph 1019.6mb 34f 30f
9:30 3 5 mph 1019.7mb 34f 30f
9:24 3 5 mph 1019.6mb 34f 30f
9:18 3 5 mph 1019.6mb 34f 30f
9:12 3 5 mph 1019.6mb 34f 30f
9:06 3
mph
1019.6mb 34f 30f
9:00 3 6 mph 1019.7mb 34f 31f
8:54 5
mph
1019.7mb 34f 30f
8:48 6
mph
1019.6mb 34f 30f
8:42 5
mph
1019.7mb 34f 30f
8:36 3 5 mph 1019.7mb 34f 30f
8:30 6 7 mph 1019.9mb 34f 30f
8:24 3 6 mph 1019.9mb 34f 30f
8:18 5 6 mph 1019.8mb 34f 30f
8:12 3 5 mph 1020.2mb 34f 30f
8:06 3 5 mph 1020.4mb 34f 30f
8:00 3 5 mph 1020.6mb 34f 30f
7:54 3 6 mph 1020.7mb 34f 29f
7:48 5 6 mph 1021mb 34f 29f
7:42 6 8 mph 1021mb 34f 29f
7:36 6 8 mph 1021mb 34f 29f
7:30 5 6 mph 1021mb 34f 29f
7:24 6 7 mph 1021.1mb 34f 29f
7:18 6 7 mph 1021.1mb 34f 29f
7:12 6 7 mph 1021mb 34f 29f
7:06 6 7 mph 1021.1mb 34f 29f
7:00 6 9 mph 1021.1mb 34f 29f
6:54 8 9 mph 1021.2mb 34f 29f
6:48 8 9 mph 1021.2mb 34f 29f
6:42 8 9 mph 1021.2mb 34f 29f
6:36 9 10 mph 1021.3mb 34f 29f
6:30 9 11 mph 1021.3mb 34f 29f
6:24 9 10 mph 1021.4mb 34f 30f
6:18 9 11 mph 1021.5mb 34f 30f
6:12 9 10 mph 1021.5mb 34f 30f
6:06 8 9 mph 1021.4mb 34f 30f
6:00 9 10 mph 1021.5mb 34f 30f
5:54 9 13 mph 1021.6mb 34f 30f
5:48 11 14 mph 1021.6mb 34f 31f
5:42 11 14 mph 1021.8mb 34f 31f
5:36 11 14 mph 1021.9mb 34f 31f
5:30 13
mph
1021.9mb 34f 31f
5:24 11 13 mph 1021.9mb 34f 31f
5:18 10 11 mph 1021.9mb 34f 31f
5:12 11 13 mph 1021.8mb 34f 31f
5:06 11
mph
1021.8mb 34f 31f
5:00 11
mph
1021.8mb 34f 31f
4:54 8 11 mph 1021.9mb 34f 31f
4:48 7 8 mph 1021.9mb 34f 31f
4:42 7 9 mph 1021.9mb 34f 31f
4:36 8 10 mph 1021.9mb 34f 31f
4:30 10 13 mph 1021.9mb 34f 31f
4:24 11 13 mph 1022mb 34f 31f
4:18 8 9 mph 1022.1mb 34f 31f
4:12 8 9 mph 1022.2mb 34f 31f
4:06 8
mph
1022.2mb 34f 31f
4:00 7 8 mph 1022.2mb 35f 31f
3:54 7 8 mph 1022.2mb 35f 31f
3:48 7 8 mph 1022.3mb 35f 31f
3:42 8
mph
1022.3mb 35f 31f
3:36 8
mph
1022.4mb 35f 31f
3:30 7 8 mph 1022.5mb 35f 32f
3:24 7 8 mph 1022.6mb 35f 32f
3:18 7 8 mph 1022.6mb 35f 32f
3:12 7 8 mph 1022.7mb 35f 32f
3:06 7 8 mph 1022.8mb 35f 31f
3:00 8
mph
1022.8mb 35f 31f
2:54 8 9 mph 1022.9mb 35f 32f
2:48 8 9 mph 1023mb 35f 32f
2:42 8 9 mph 1023mb 35f 31f
2:36 7 8 mph 1023.1mb 35f 31f
2:30 8
mph
1023.2mb 35f 31f
2:24 8 9 mph 1023.2mb 35f 31f
2:18 7 8 mph 1023.2mb 35f 31f
2:12 6 7 mph 1023.3mb 34f 31f
2:06 6 7 mph 1023.4mb 34f 31f
2:00 6 7 mph 1023.5mb 34f 31f
1:30 3 5 mph 1023.7mb 33f 31f
1:24 3 5 mph 1023.8mb 33f 31f
1:18 3 5 mph 1024mb 33f 30f
1:12 3
mph
1024mb 33f 31f
1:06 3 5 mph 1023.9mb 33f 31f
1:00 2 3 mph 1024mb 33f 31f
12:54 3
mph
1024.1mb 33f 31f
12:48 2
mph
1024mb 33f 31f
12:42  -  mph 1024mb 33f 34f
12:36  -  mph 1024.1mb 33f 33f
12:30  -  1 mph 1024.3mb 33f 29f
12:24 1 2 mph 1024.5mb 33f 28f
12:18 2 3 mph 1024.7mb 32f 28f
12:12 2
mph
1024.8mb 32f 27f
12:06 2 3 mph 1024.8mb 32f 28f
12:00 2
mph
1024.9mb 32f 28f
11:54  -  1 mph 1025mb 32f 31f
11:48 1 2 mph 1025.3mb 32f 28f
11:42 1 2 mph 1025.5mb 32f 28f
11:36 2 3 mph 1025.7mb 32f 26f
11:30 2 3 mph 1025.8mb 32f 25f
11:24 2 5 mph 1025.9mb 32f 24f
11:18 3
mph
1026mb 32f 24f
11:12 3
mph
1026.1mb 32f 24f
11:06 1 2 mph 1026.2mb 32f 25f
11:00  -  2 mph 1026.2mb 32f 26f
10:54  -  1 mph 1026.3mb 32f 26f
10:48 1 2 mph 1026.4mb 32f 26f
10:00 3 5 mph 1026.9mb 32f 27f
9:54 3 5 mph 1026.9mb 32f 27f
9:48 2 5 mph 1026.9mb 32f 26f
9:42 3 6 mph 1027mb 32f 25f
9:36 6 7 mph 1027mb 32f 24f
9:30 5 7 mph 1027mb 32f 24f
9:24 6
mph
1026.9mb 32f 24f
9:18 5 6 mph 1026.9mb 32f 23f
9:12 3 5 mph 1026.9mb 32f 23f
9:06 3 5 mph 1026.9mb 32f 23f
9:00 3 5 mph 1026.9mb 32f 23f
8:54 2 3 mph 1026.8mb 32f 24f
8:48 1 3 mph 1026.8mb 32f 23f
8:42 3 5 mph 1026.6mb 32f 24f
8:36 3
mph
1026.6mb 32f 23f
8:30 2 5 mph 1026.6mb 32f 23f
8:24 3 5 mph 1026.7mb 32f 22f
8:18 3 5 mph 1026.8mb 32f 22f
7:54 2 5 mph 1026.7mb 32f 22f
7:48 3 5 mph 1026.6mb 32f 21f
7:42 5 6 mph 1026.4mb 32f 19f
7:24 6 9 mph 1026.4mb 32f 16f
7:18 8 9 mph 1026.3mb 32f 15f
7:12 8 9 mph 1026.2mb 32f 15f
7:06 6 7 mph 1026.2mb 32f 15f
7:00 6
mph
1026.1mb 32f 15f
6:48 5 6 mph 1025.9mb 32f 15f
6:42 6
mph
1025.8mb 32f 15f
6:30 5 6 mph 1025.6mb 32f 15f
6:24 5 6 mph 1025.7mb 32f 16f
6:18 3 5 mph 1025.6mb 32f 16f
6:06 3 5 mph 1025.5mb 32f 16f
5:54 6 7 mph 1025.5mb 32f 16f
5:48 6 7 mph 1025.6mb 32f 17f
5:30 5 6 mph 1025.5mb 32f 17f
5:18 6 9 mph 1025.4mb 33f 18f
5:12 8 10 mph 1025.4mb 33f 17f
5:06 10 11 mph 1025.6mb 33f 17f
5:00 10
mph
1025.8mb 33f 17f
4:48 9 10 mph 1025.7mb 33f 17f
4:42 10 13 mph 1025.7mb 33f 17f
4:30 10 11 mph 1025.6mb 33f 17f
4:24 9 10 mph 1025.5mb 33f 17f
4:18 8 9 mph 1025.3mb 33f 17f
4:12 7 9 mph 1025mb 33f 17f
4:06 8
mph
1025.1mb 33f 17f
4:00 7 8 mph 1025mb 33f 17f
3:54 7 9 mph 1025.1mb 33f 17f
3:48 7 8 mph 1025.2mb 33f 17f
3:42 7 9 mph 1025.3mb 33f 17f
3:36 7 8 mph 1025.4mb 33f 17f
3:24 7 9 mph 1025.3mb 33f 17f
3:18 8 10 mph 1025.3mb 33f 17f
3:12 9 10 mph 1025.2mb 33f 18f
3:06 9 10 mph 1025.3mb 33f 18f
3:00 8 9 mph 1025.2mb 33f 18f
2:54 8 9 mph 1025.1mb 33f 18f
2:42 8 9 mph 1025.1mb 33f 19f
2:36 8 9 mph 1025.1mb 33f 18f
2:30 7 9 mph 1025.1mb 33f 19f
2:18 11 14 mph 1024.9mb 33f 19f
2:12 10 13 mph 1024.8mb 33f 19f
2:00 11 13 mph 1024.8mb 34f 19f
1:54 10 13 mph 1024.7mb 34f 19f
1:48 11 13 mph 1024.8mb 34f 19f
1:42 11 13 mph 1024.6mb 34f 19f
1:36 10 13 mph 1024.5mb 34f 20f
1:18 10 13 mph 1024.3mb 34f 20f
1:12 10 13 mph 1024.2mb 34f 20f
1:00 10 13 mph 1023.9mb 34f 20f
12:54 10 13 mph 1023.9mb 34f 21f
12:48 10 14 mph 1023.9mb 34f 21f
12:42 11 14 mph 1023.8mb 34f 21f
12:36 11 14 mph 1023.7mb 34f 21f
12:30 10 11 mph 1023.7mb 34f 22f
12:24 9 11 mph 1023.7mb 34f 22f
12:12 10 14 mph 1023.7mb 34f 22f
12:06 11 14 mph 1023.6mb 34f 21f
12:00 13 14 mph 1023.6mb 34f 22f
Mi 01/28 11:54 11 14 mph 1023.7mb 33f 22f
11:48 13 14 mph 1023.8mb 33f 22f
11:42 10 13 mph 1023.7mb 33f 22f
11:36 8 10 mph 1023.7mb 33f 22f
11:24 9 11 mph 1023.6mb 33f 22f
11:18 9 11 mph 1023.5mb 33f 22f
11:12 9 11 mph 1023.4mb 33f 22f
11:06 9 11 mph 1023.4mb 33f 22f
11:00 9 11 mph 1023.3mb 33f 22f
10:48 9 11 mph 1023.2mb 33f 22f
10:42 10 11 mph 1023.1mb 33f 23f
10:36 9 11 mph 1023mb 33f 23f
10:24 10 13 mph 1022.8mb 33f 23f
10:18 10 13 mph 1022.8mb 34f 23f
10:12 10 14 mph 1022.6mb 34f 23f
9:54 10 14 mph 1022.2mb 34f 24f
9:48 11 13 mph 1022.1mb 34f 24f
9:42 10 15 mph 1022.1mb 34f 24f
9:36 11 15 mph 1022.1mb 34f 24f
9:12 10 13 mph 1021.7mb 34f 24f
9:06 9 13 mph 1021.7mb 34f 24f
9:00 9 13 mph 1021.6mb - -
8:54 9 14 mph 1021.5mb - -
8:48 11 14 mph 1021.4mb 34f 25f
8:42 13 15 mph 1021.3mb 34f 25f
8:36 13 15 mph 1021.3mb 34f 25f
8:30 13 15 mph 1021.3mb 34f 25f
8:24 11 16 mph 1021.3mb 34f 26f
8:18 13 14 mph 1021.2mb - 25f
8:12 14 15 mph 1021.1mb - 25f
8:06 13 14 mph 1021mb - 25f
8:00 13 15 mph 1021mb 34f 25f
7:54 13 15 mph 1020.9mb 34f 25f
7:42 13 14 mph 1020.7mb 34f 25f
7:36 13 14 mph 1020.6mb 34f 25f
7:30 13 14 mph 1020.5mb 34f 26f
7:24 10 11 mph 1020.4mb 34f 26f
7:18 9 11 mph 1020.3mb 34f 26f
7:12 10 11 mph 1020.2mb 34f 26f
7:06 10 13 mph 1020.2mb 34f 26f
7:00 9 14 mph 1020.1mb 34f 26f
6:54 10 14 mph 1020mb 34f 26f
6:48 11 14 mph 1019.9mb 34f 26f
6:42 14 15 mph 1019.8mb 34f 26f
6:36 13 15 mph 1019.7mb 34f 26f
6:30 13 15 mph 1019.6mb 34f 26f
6:24 14 17 mph 1019.5mb 34f 26f
6:18 15 17 mph 1019.4mb 34f 26f
6:12 14 16 mph 1019.3mb 34f 26f
6:06 14 15 mph 1019.2mb 34f 26f
6:00 14 16 mph 1019.1mb 34f 26f
5:54 13 16 mph 1019mb 34f 26f
5:48 14 16 mph 1018.9mb 34f 27f
5:42 16 20 mph 1018.7mb 34f 27f
5:36 14 16 mph 1018.6mb 34f 26f
5:30 14 15 mph 1018.5mb 34f 26f
5:24 7 10 mph 1018.5mb 34f 27f
5:18 9 10 mph 1018.3mb 34f 27f
5:12 9 11 mph 1018mb 34f 26f
5:06 9 13 mph 1017.8mb 34f 27f
5:00  -  mph 1017.7mb 34f -
4:54  -  mph 1017.6mb 34f -
4:48 10 14 mph 1017.5mb 34f 27f
4:42 13 15 mph 1017.4mb 34f 27f
4:36 13 17 mph 1017.2mb 34f 27f
4:30 15 17 mph 1017.1mb 34f 27f
4:24 16 21 mph 1017mb 34f 28f
4:18  -  mph - 34f 27f
4:12  -  mph - 34f 28f
4:06  -  mph - 34f 27f
4:00 18 25 mph 1016.5mb 34f 27f
3:54 21 23 mph 1016.4mb 34f 27f
3:48 22 24 mph 1016.3mb 34f 27f
3:42 21 24 mph 1016.2mb 34f 27f
3:36 18 23 mph 1016.2mb 34f 26f
3:30 18 22 mph 1016.1mb 34f 26f
3:24 18 23 mph 1016.1mb 34f 26f
3:18 20 23 mph 1016.1mb 34f 26f
3:12 21 22 mph 1015.9mb 34f 26f
3:06 14 15 mph 1015.9mb 34f 27f
3:00 13 17 mph 1015.8mb 34f 27f
2:54 13 16 mph 1015.7mb 34f 26f
2:48 13 15 mph 1015.6mb 34f 26f
2:42 13 16 mph 1015.6mb 34f 27f
2:36 14 17 mph 1015.5mb 34f 25f
2:30 15 16 mph 1015.4mb 34f 25f
2:24 15 18 mph 1015.3mb 34f 25f
2:18 14 20 mph 1015.2mb 34f 25f
2:12 16 21 mph 1015.1mb 34f 24f
2:06 16 20 mph 1015.2mb 34f 23f
2:00 15 18 mph 1015.2mb 34f 23f
1:54 15 18 mph 1015.1mb 34f 23f
1:48 14 18 mph 1015.1mb 34f 23f
1:42 15 18 mph 1015.1mb 34f 22f
1:36 17 20 mph 1015.1mb 34f 23f
1:30 17 21 mph 1015mb 34f 22f
1:24 18 22 mph 1014.9mb 34f 22f
1:18 20 23 mph 1014.9mb 34f 21f
1:12 17 21 mph 1014.9mb 34f 21f
1:06 18 22 mph 1014.9mb 34f 21f
1:00  -  mph 1014.9mb 34f 21f
12:54  -  mph 1014.9mb 34f 21f
12:48 20 22 mph 1014.8mb 34f 22f
12:42 17 20 mph 1014.7mb 34f 21f
12:36 16 20 mph 1014.7mb 34f 21f
12:30 15 21 mph 1014.6mb 34f 21f
12:24 17 20 mph 1014.6mb 34f 21f
12:18 16 21 mph 1014.6mb 33f 21f
12:12 15 18 mph 1014.5mb 33f 22f
12:06 16 18 mph 1014.4mb 33f 21f
12:00 16 20 mph 1014.4mb 33f 21f
11:54 15 18 mph 1014.5mb 33f 20f
11:48 16 18 mph 1014.4mb 33f 21f
11:42 16 21 mph 1014.4mb 33f 21f
11:36 17 22 mph 1014.4mb 33f 20f
11:30 17 21 mph 1014.3mb 33f 20f
11:24 18 23 mph 1014.4mb 33f 20f
11:18 18 22 mph 1014.4mb 33f 20f
11:12 18 22 mph 1014.4mb 33f 20f
11:06 20 22 mph 1014.3mb 33f 20f
11:00  -  mph - - 19f
10:54  -  mph - - 20f
10:48 15 21 mph 1014.5mb 33f 20f
10:42 17 21 mph 1014.4mb 33f 19f
10:36 16 21 mph 1014.4mb 33f 18f
10:30 17 22 mph 1014.3mb 33f 18f
10:24 21 23 mph 1014.2mb 33f 18f
10:18 17 23 mph 1014.1mb 33f 18f
10:12 21 23 mph 1014.1mb 33f 18f
10:06 20 23 mph 1014mb 33f 18f
10:00 21 25 mph 1014mb 33f 18f
9:54 21 25 mph 1013.9mb 33f 17f
9:42 21 26 mph 1013.8mb 33f 17f
9:36 22 26 mph 1013.7mb 33f 17f
9:24 23 28 mph 1013.6mb 33f 17f
9:12 24 30 mph 1013.4mb 33f 17f
9:06 21 23 mph 1013.4mb 33f 17f
8:54 22 26 mph 1013.3mb 33f 16f
8:24 22 26 mph 1012.8mb 33f 16f
8:18 22 25 mph 1012.7mb 33f 15f
8:06 22 23 mph 1012.5mb 33f 15f
8:00 20 23 mph 1012.5mb 33f 15f
7:54 18 22 mph 1012.3mb 33f 15f
7:48 20 23 mph 1012.2mb 33f 15f
7:42 18 21 mph 1012.2mb 33f 15f
7:36 20 22 mph 1012.1mb 33f 15f
7:30 18 23 mph 1011.9mb 33f 14f
7:18 20 23 mph 1011.8mb 33f 14f
7:12 18 22 mph 1011.6mb 34f 15f
7:00 18 22 mph 1011.4mb 34f 15f
6:48 17 21 mph 1011.1mb 34f 15f
6:36 16 22 mph 1010.9mb 34f 15f
6:30 16 20 mph 1010.8mb 34f 15f
6:24 15 18 mph 1010.8mb 34f 15f
6:12 16 18 mph 1010.7mb 34f 14f
6:06 16 18 mph 1010.5mb 34f 14f
6:00 14 17 mph 1010.4mb 34f 15f
5:54 14 18 mph 1010.4mb 34f 14f
5:48 14 17 mph 1010.3mb - -
5:42 15 18 mph 1010.2mb - -
5:30 15 17 mph 1009.9mb 34f 15f
5:06 15 17 mph 1009.4mb 34f 15f
5:00 15 17 mph 1009.3mb 34f 15f
4:48 15 20 mph 1008.9mb 34f 15f
4:42 15 18 mph 1008.9mb 34f 15f
4:30 17 21 mph 1008.7mb 34f 15f
4:18 16 21 mph 1008.4mb 34f 15f
4:06 17 25 mph 1008.2mb 34f 15f
4:00 18 24 mph 1008mb 34f 15f
3:48 18 22 mph 1007.9mb 34f 15f
3:42 17 21 mph 1007.8mb 34f 15f
3:36 18 21 mph 1007.7mb 34f 15f
3:30 18 23 mph 1007.7mb 34f 15f
3:24 18 22 mph 1007.6mb 34f 15f
3:12 20 22 mph 1007.5mb 34f 15f
3:06 17 20 mph 1007.3mb 34f 16f
3:00 18 22 mph 1007.3mb 34f 15f
2:54 18 21 mph 1007.1mb 34f 16f
2:48 17 21 mph 1007mb 34f 16f
2:36 18 24 mph 1006.7mb 34f 16f
2:24 20 22 mph 1006.5mb 34f 16f
2:18 18 22 mph 1006.4mb 34f 16f
2:12 18 22 mph 1006.4mb 34f 16f
2:00 21 25 mph 1006.2mb 35f 16f
1:54 18 22 mph 1006.1mb 35f 17f
1:48 21 24 mph 1006mb 35f 16f
1:42 21 24 mph 1005.9mb 35f 16f
1:36 22 24 mph 1005.8mb 35f 17f
1:30 21 24 mph 1005.8mb 35f 17f
1:12 22 25 mph 1005.5mb 35f 17f
1:06 20 24 mph 1005.5mb 35f 17f
1:00 20 25 mph 1005.4mb 35f 16f
12:54 22 26 mph 1005.3mb 35f 17f
12:42 20 24 mph 1005.2mb 35f 16f
12:36 18 24 mph 1005.2mb 35f 16f
12:24 20 23 mph 1005.1mb 35f 16f
12:18 21 25 mph 1005.1mb 35f 15f
12:12 20 24 mph 1005mb 35f 15f
12:06 21 24 mph 1005mb 35f 16f
12:00 21 25 mph 1005mb 35f 16f
Di 01/27 11:54 23 29 mph 1004.9mb 35f 16f
11:48 22 26 mph 1004.8mb 35f 16f
11:42 22 28 mph 1004.8mb 35f 16f
11:30 23 29 mph 1004.6mb 35f 16f
11:24 23 30 mph 1004.7mb 35f 16f
11:18 22 29 mph 1004.7mb 35f 16f
11:06 23 26 mph 1004.5mb 35f 16f
10:54 25 30 mph 1004.4mb 35f 15f
10:48 24 28 mph 1004.3mb 35f 16f
10:36 23 29 mph 1004.3mb 34f 16f
10:30 24 29 mph 1004.2mb 34f 16f
10:24 24 28 mph 1004.1mb 34f 16f
10:18 26 31 mph 1004mb 34f 16f
10:12 23 26 mph 1003.9mb 34f 16f
10:06 22 30 mph 1003.8mb 34f 17f
10:00 24 29 mph 1003.6mb 34f 16f
9:48 25 30 mph 1003.5mb 34f 17f
9:42 24 30 mph 1003.4mb 34f 17f
9:36 24 30 mph 1003.3mb 34f 17f
9:24 28 34 mph 1003mb 34f 17f
9:06 26 30 mph 1002.9mb 34f 17f
8:54 25 32 mph 1002.7mb 34f 17f
8:48 26 34 mph 1002.7mb 34f 17f
8:42 28 34 mph 1002.6mb 34f 17f
8:30 25 30 mph 1002.5mb 34f 17f
8:12 25 30 mph 1002.2mb 34f 17f
8:06 28 32 mph 1002.1mb 34f 17f
7:54 26 32 mph 1002mb 34f 17f
7:48 26 30 mph 1001.9mb 34f 17f
7:36 25 30 mph 1001.8mb 35f 17f
7:24 26 33 mph 1001.5mb 35f 18f
7:18 26 31 mph 1001.4mb 35f 18f
7:06 26 30 mph 1001.1mb 35f 19f
6:48 25 32 mph 1000.9mb 35f 20f
6:36 24 33 mph 1000.7mb 35f 20f
6:30 24 33 mph 1000.6mb 35f 20f
6:24 26 32 mph 1000.5mb 35f 20f
6:18 24 30 mph 1000.5mb 35f 20f
6:12 25 29 mph 1000.3mb 35f 20f
6:06 26 31 mph 1000.2mb 35f 20f
5:54 28 30 mph 999.9mb 35f 20f
5:48 25 31 mph 999.9mb 35f 20f
5:42 29 32 mph 999.7mb 35f 20f
5:30 25 29 mph 999.6mb 35f 20f
5:24 22 28 mph 999.5mb 35f 20f
5:12 25 36 mph 999.4mb 35f 22f
5:00 30 40 mph 999.2mb 35f 22f
4:54 25 32 mph 999.2mb 35f 22f
4:48 26 37 mph 999.1mb 35f 22f
4:36 33 49 mph 998.8mb 35f 22f
4:18 33 41 mph 998.6mb 35f 22f
4:12 25 32 mph 998.6mb 35f 22f
4:06 29 34 mph 998.5mb 35f 22f
4:00 34 43 mph 998.4mb 35f 22f
3:54 33 40 mph 998.3mb 35f 22f
3:48 33 40 mph 998.3mb 35f 22f
3:42 25 32 mph 998.4mb 35f 22f
3:24 34 41 mph 998.3mb 35f 21f
3:18 37 41 mph 998.3mb 35f 21f
3:12 29 34 mph 998.4mb 35f 21f
3:00 34 45 mph 998.2mb 35f 20f
2:48 32 40 mph 998.2mb 35f 21f
2:42 34 44 mph 998mb 35f 20f
2:36 31 40 mph 998.1mb 35f 21f
2:30 30 37 mph 998mb 35f 20f
2:24 28 40 mph 998mb 35f 20f
2:18 36 43 mph 997.9mb 35f 19f
2:06 30 34 mph 997.8mb 35f 20f
2:00 32 37 mph 997.8mb 35f 20f
1:48 32 40 mph 997.7mb 35f 20f
1:30 33 39 mph 997.7mb 35f 19f
1:24 32 39 mph 997.6mb 35f 20f
1:18 32 39 mph 997.6mb 35f 20f
1:06 36 44 mph 997.5mb 35f 19f
12:54 30 44 mph 997.5mb 35f 19f
12:48 31 39 mph 997.3mb 36f 19f
12:36 32 38 mph 997.2mb 36f 19f
12:24 30 43 mph 997.4mb 35f 19f
12:12 32 40 mph 997.3mb 36f 19f
12:06 32 38 mph 997.3mb 36f 19f
11:54 31 40 mph 997.4mb 36f 19f
11:18 26 37 mph 997.9mb 35f 19f
10:54 30 37 mph 998mb 35f 19f
10:48 31 38 mph 998.1mb 35f 18f
10:42 30 34 mph 998mb 35f 19f
10:36 28 31 mph 998.2mb 35f 19f
10:24 29 36 mph 998.2mb 35f 19f
10:18 28 32 mph 998.1mb 35f 19f
10:12 24 33 mph 998.1mb 35f 19f
10:06 25 30 mph 998mb 35f 19f
10:00 24 29 mph 998mb 35f 19f
9:54 25 31 mph 997.9mb 35f 19f
9:48 26 32 mph 997.8mb 35f 19f
9:42 24 36 mph 997.8mb 35f 19f
9:36 30 38 mph 997.7mb 35f 19f
9:30 28 38 mph 997.6mb 35f 19f
9:24 26 36 mph 997.5mb 35f 19f
9:18 26 37 mph 997.6mb 35f 19f
9:12 30 44 mph 997.6mb 35f 19f
9:06 30 43 mph 997.4mb 35f 19f
8:54 29 43 mph 997.6mb 35f 19f
8:48 30 37 mph 997.6mb 35f 19f
8:42 32 40 mph 997.7mb 35f 19f
8:36 30 38 mph 997.9mb 35f 19f
8:30 34 39 mph 998mb 35f 19f
8:24 29 39 mph 998.2mb 35f 19f
8:18 34 44 mph 998.1mb 35f 19f
8:12 29 40 mph 998.3mb 35f 19f
8:06 31 45 mph 998.4mb 35f 19f
8:00 31 39 mph 998.7mb 35f 19f
7:54 28 44 mph 998.8mb 35f 20f
7:48 32 43 mph 998.9mb 35f 19f
7:42 31 41 mph 999mb 35f 19f
7:36 31 46 mph 999.1mb 35f 20f
7:30 30 44 mph 999mb 35f 20f
7:24 36 49 mph 998.9mb 35f 19f
7:18 30 44 mph 999.1mb 35f 20f
7:12 36 46 mph 999.1mb 35f 20f
7:06 37 45 mph 999.1mb 35f 20f
7:00 37 46 mph 999mb 35f 19f
6:54 33 44 mph 999mb 35f 19f
6:36 34 45 mph 998.8mb 35f 19f
6:30 32 43 mph 998.8mb 35f 19f
6:24 33 41 mph 999mb 35f 19f
6:18 34 40 mph 999mb 35f 19f
6:06 39 48 mph 998.7mb 35f 19f
5:54 36 45 mph 998.8mb 35f 20f
5:48 29 45 mph 999.1mb 35f 20f
5:42 31 46 mph 998.9mb 35f 20f
5:30 37 44 mph 998.7mb 35f 19f
5:24 38 48 mph 998.5mb 35f 19f
5:18 39 47 mph 998.5mb 35f 19f
5:12 37 49 mph 998.6mb 35f 20f
5:06 39 47 mph 998.3mb 35f 20f
4:54 39 53 mph 998.1mb 36f 20f
4:48 39 47 mph 998.1mb 36f 20f
4:36 37 51 mph 998.5mb 36f 20f
4:30 44 52 mph 998.2mb 36f 19f
4:24 39 51 mph 998.5mb 36f 19f
4:18 40 53 mph 998.5mb 36f 20f
3:42 43 49 mph 999.1mb 35f 19f
3:36 40 49 mph 999.1mb 35f 19f
3:30 43 49 mph 998.9mb 35f 19f
3:24 41 51 mph 999mb 35f 19f
3:12 43 51 mph 999.2mb 35f 19f
3:06 40 49 mph 999.3mb 35f 19f
2:54 39 46 mph 999.9mb 35f 19f
2:48 39 45 mph 1000mb 35f 19f
2:42 40 51 mph 1000.1mb 35f 19f
2:36 37 47 mph 1000.5mb 35f 19f
2:30 33 44 mph 1000.9mb 35f 19f
2:24 39 44 mph 1001.1mb 35f 19f
2:12 33 45 mph 1001.4mb 35f 19f
2:06 36 43 mph 1001.3mb 35f 19f
2:00 32 47 mph 1001.3mb 35f 19f
1:54 36 53 mph 1001.4mb 35f 19f
1:42 34 43 mph 1001.3mb 35f 19f
1:36 31 45 mph 1001.7mb 35f 20f
1:30 30 40 mph 1001.7mb 36f 20f
1:12 33 43 mph 1001.9mb 36f 21f
1:00 33 41 mph 1002.3mb 36f 22f
12:54 33 45 mph 1002.4mb 36f 22f
12:42 33 40 mph 1002.8mb 36f 22f
12:36 30 40 mph 1002.8mb 36f 23f
12:30 31 43 mph 1003mb 36f 22f
12:24 32 41 mph 1003mb 36f 23f
12:12 36 41 mph 1003.1mb 36f 23f
12:06 33 45 mph 1003.6mb 36f 24f
12:00 31 44 mph 1003.8mb 36f 26f
Mo 01/26 11:54 30 39 mph 1003.9mb 36f 28f
11:42 29 44 mph 1004.3mb 36f 28f
11:30 33 39 mph 1005mb 36f 28f
11:24 29 41 mph 1005.3mb 36f 28f
11:18 36 43 mph 1005.3mb 36f 29f
11:12 30 46 mph 1005.6mb 36f 29f
11:06 29 40 mph 1005.6mb 36f 29f
11:00 28 39 mph 1005.8mb 36f 29f
10:48 29 43 mph 1006mb 35f 29f
10:42 33 40 mph 1006.2mb 35f 29f
10:36 28 34 mph 1006.8mb 35f 29f
10:30 30 41 mph 1007.2mb 35f 29f
10:24 30 43 mph 1007.3mb 35f 29f
10:18 31 41 mph 1007.2mb 35f 29f
10:06 24 37 mph 1007.5mb 35f 29f
9:48 28 37 mph 1008.1mb 35f 28f
9:42 26 37 mph 1008.5mb 35f 28f
9:30 24 33 mph 1009.1mb 35f 28f
9:24 23 30 mph 1009.3mb 35f 28f
9:18 26 34 mph 1009.6mb 35f 28f
9:06 23 30 mph 1009.9mb 35f 29f
9:00 23 31 mph 1010.2mb 35f 29f
8:48  -  mph 1010.6mb 35f 29f
8:42  -  mph 1010.6mb 35f 29f
8:30 21 31 mph 1011.1mb 35f 29f
8:24 18 24 mph 1011.5mb 35f 28f
8:18 15 22 mph 1012mb 35f 28f
7:54 22 26 mph 1012.1mb 35f 28f
7:36 17 26 mph 1012.7mb 36f 28f
7:30 20 26 mph 1012.8mb 36f 28f
7:24 20 26 mph 1013mb 36f 28f
7:18 17 24 mph 1013.4mb 36f 29f
7:12 17 24 mph 1013.6mb 36f 28f
7:06 17 23 mph 1013.7mb 36f 28f
7:00 16 22 mph 1013.5mb 36f 28f
6:54 16 23 mph 1013.4mb 36f 28f
6:48 18 24 mph 1013.5mb 36f 28f
6:42 17 22 mph 1013.6mb 36f 28f
6:36 17 23 mph 1013.6mb 36f 28f
6:30 18 24 mph 1013.6mb 36f 28f
6:24 17 23 mph 1013.5mb 36f 28f
6:18 18 24 mph 1013.6mb 36f 28f
6:12 17 21 mph 1013.6mb 36f 28f
6:06 17 25 mph 1013.7mb 36f 28f
6:00 18 22 mph 1013.6mb 35f 28f
5:54 16 25 mph 1013.7mb 36f 28f
5:48 16 23 mph 1013.9mb 36f 28f
5:42 16 22 mph 1014.2mb 36f 28f
5:36 18 22 mph 1014.2mb 36f 28f
5:30 15 23 mph 1014.4mb 36f 28f
5:24 20 24 mph 1014.4mb 36f 28f
5:18 16 21 mph 1014.6mb 35f 28f
5:12 16 20 mph 1014.6mb 35f 28f
5:06 14 21 mph 1014.6mb 35f 28f
5:00 15 20 mph 1014.6mb 35f 28f
4:54 11 17 mph 1014.8mb 35f 28f
4:48 14 17 mph 1014.5mb 35f 28f
4:42 14 16 mph 1014.5mb 35f 28f